Terminal Aerodrome Forecast
Issued by NWS Cleveland, OH

Home | Current Version | Previous Version | Graphics & Text | Print | Product List | Glossary On
Versions: 1 2 3 4 5 6 7 8 9 10 11 12 13 14 15 16 17 18 19 20 21 22 23 24 25 26 27 28 29 30 31 32
000
FTUS41 KCLE 031140
TAFCLE
TAF
KCLE 031140Z 0312/0418 22004KT P6SM SCT150 BKN250
     FM031600 34006KT P6SM SCT060 SCT200
     FM040200 VRB04KT P6SM VCSH SCT060 BKN120
     FM041500 34005KT P6SM BKN080=

USA.gov is the U.S. government's official web portal to all federal, state and local government web resources and services.